Todd, Minnesota
Current Conditions -  °F | °C
As of 11:53 PM on Saturday 22 Nov 2014 (Local Time) from KPKD Reporting Station
Haze Haze  
Wind Chill: 24°   Ceiling: 300
Heat Index: 32°   Visibility: 1mi
Dew Point: 32°   Wind: 10mph
Humidity: 100%   Direction: 140°SE
Pressure: 29.4"   Gusts: NA
Location:  46.9966°N, 95.0029°W
Report Text: KPKD 230553Z AUTO 14009KT 1SM BR VV003 00/00 A2940 RMK AO2 SLP968 I1001 I6002 T00000000 10022 21006 400781078 56019
Loading
Personal Weather Stations






























Interactive Weather Map New forecast layout! Learn more

10-Day Weather Forecast

Advertisements
Track Severe Weather on mobile